createdAt,value
2023-05-05T00:00:59.967Z,13.38
2023-05-05T00:03:28.243Z,13.55
2023-05-05T00:05:57.514Z,15.32
2023-05-05T00:08:25.508Z,12.43
2023-05-05T00:10:54.212Z,15.05
2023-05-05T00:13:22.681Z,12.50
2023-05-05T00:15:53.455Z,15.80
2023-05-05T00:18:22.074Z,13.38
2023-05-05T00:20:49.876Z,12.55
2023-05-05T00:23:21.174Z,16.17
2023-05-05T00:25:48.917Z,15.07
2023-05-05T00:28:16.706Z,15.45
2023-05-05T00:30:44.634Z,14.88
2023-05-05T00:33:12.437Z,14.95
2023-05-05T00:35:40.361Z,15.18
2023-05-05T00:38:08.509Z,14.68
2023-05-05T00:40:38.119Z,15.10
2023-05-05T00:43:06.195Z,14.55
2023-05-05T00:45:33.995Z,14.13
2023-05-05T00:48:02.458Z,16.05
2023-05-05T00:50:31.550Z,14.13
2023-05-05T00:53:02.611Z,13.00
2023-05-05T00:55:31.225Z,13.77
2023-05-05T00:58:01.615Z,16.13
2023-05-05T01:00:29.997Z,12.73
2023-05-05T01:02:58.067Z,14.63
2023-05-05T01:05:28.910Z,16.25
2023-05-05T01:08:15.298Z,16.10
2023-05-05T01:10:49.820Z,13.52
2023-05-05T01:13:33.177Z,11.60
2023-05-05T01:16:11.708Z,17.45
2023-05-05T01:18:46.808Z,15.00
2023-05-05T01:21:19.364Z,15.75
2023-05-05T01:24:22.072Z,13.75
2023-05-05T01:27:01.492Z,13.70
2023-05-05T01:29:51.629Z,15.32
2023-05-05T01:32:26.802Z,12.95
2023-05-05T01:34:59.563Z,13.88
2023-05-05T01:37:30.181Z,16.17
2023-05-05T01:40:03.656Z,13.93
2023-05-05T01:42:33.540Z,14.13
2023-05-05T01:45:04.535Z,14.07
2023-05-05T01:50:03.911Z,13.60
2023-05-05T01:52:32.632Z,16.98
2023-05-05T01:55:02.494Z,13.82
2023-05-05T01:57:32.703Z,16.35
2023-05-05T02:00:06.103Z,16.90
2023-05-05T02:02:46.467Z,15.02
2023-05-05T02:05:16.268Z,16.13
2023-05-05T02:07:45.710Z,14.55
2023-05-05T02:10:14.855Z,14.57
2023-05-05T02:12:44.479Z,13.57
2023-05-05T02:15:14.045Z,16.13
2023-05-05T02:17:44.067Z,12.95
2023-05-05T02:20:14.264Z,14.82
2023-05-05T02:22:42.335Z,12.52
2023-05-05T02:25:10.940Z,14.02
2023-05-05T02:27:43.437Z,11.88
2023-05-05T02:30:15.370Z,13.88
2023-05-05T02:32:49.374Z,12.82
2023-05-05T02:35:21.906Z,13.10
2023-05-05T02:37:59.436Z,12.23
2023-05-05T02:40:33.159Z,11.70
2023-05-05T02:43:07.349Z,12.52
2023-05-05T02:45:35.234Z,11.93
2023-05-05T02:48:05.337Z,11.40
2023-05-05T02:50:37.771Z,12.63
2023-05-05T02:53:15.069Z,11.88
2023-05-05T02:55:56.014Z,12.27
2023-05-05T02:58:35.665Z,13.52
2023-05-05T03:01:12.675Z,11.10
2023-05-05T03:03:48.056Z,10.55
2023-05-05T03:06:20.090Z,11.27
2023-05-05T03:08:57.158Z,10.07
2023-05-05T03:14:06.619Z,10.95
2023-05-05T03:16:36.944Z,10.02
2023-05-05T03:19:09.627Z,10.27
2023-05-05T03:21:38.339Z,8.82
2023-05-05T03:24:15.402Z,9.70
2023-05-05T03:26:47.235Z,9.93
2023-05-05T03:29:15.740Z,10.00
2023-05-05T03:31:43.698Z,9.82
2023-05-05T03:34:12.860Z,9.85
2023-05-05T03:36:46.083Z,9.95
2023-05-05T03:39:16.410Z,9.80
2023-05-05T03:41:44.358Z,9.18
2023-05-05T03:44:13.502Z,11.38
2023-05-05T03:46:41.312Z,11.35
2023-05-05T03:49:13.822Z,10.48
2023-05-05T03:54:11.183Z,11.00
2023-05-05T03:56:39.016Z,11.45
2023-05-05T03:59:07.640Z,10.88
2023-05-05T04:01:36.165Z,10.45
2023-05-05T04:04:04.146Z,13.30
2023-05-05T04:06:33.369Z,11.63
2023-05-05T04:09:01.201Z,12.85
2023-05-05T04:11:28.990Z,12.40
2023-05-05T04:13:56.953Z,11.82
2023-05-05T04:16:26.084Z,11.35
2023-05-05T04:18:55.308Z,12.63
2023-05-05T04:21:23.158Z,11.65
2023-05-05T04:23:52.781Z,11.90
2023-05-05T04:28:50.384Z,11.68
2023-05-05T04:31:19.809Z,11.05
2023-05-05T04:33:48.133Z,11.15
2023-05-05T04:36:16.149Z,11.95
2023-05-05T04:38:43.936Z,11.38
2023-05-05T04:41:13.535Z,13.90
2023-05-05T04:43:43.372Z,12.23
2023-05-05T04:46:11.207Z,11.38
2023-05-05T04:48:39.431Z,12.65
2023-05-05T04:51:08.606Z,15.27
2023-05-05T04:53:37.632Z,13.40
2023-05-05T04:56:05.650Z,12.27
2023-05-05T04:58:34.834Z,12.82
2023-05-05T05:01:03.296Z,13.05
2023-05-05T05:03:32.100Z,11.27
2023-05-05T05:06:00.227Z,13.15
2023-05-05T05:08:27.986Z,13.13
2023-05-05T05:10:55.799Z,14.63
2023-05-05T05:13:23.958Z,13.80
2023-05-05T05:15:53.375Z,11.38
2023-05-05T05:18:21.174Z,12.00
2023-05-05T05:20:50.501Z,14.23
2023-05-05T05:23:19.035Z,15.82
2023-05-05T05:25:47.407Z,12.48
2023-05-05T05:28:18.460Z,13.40
2023-05-05T05:30:51.991Z,15.48
2023-05-05T05:33:21.157Z,15.98
2023-05-05T05:35:49.513Z,18.13
2023-05-05T05:38:19.246Z,15.82
2023-05-05T05:40:47.965Z,15.10
2023-05-05T05:43:15.836Z,15.20
2023-05-05T05:45:43.695Z,17.58
2023-05-05T05:48:11.662Z,17.38
2023-05-05T05:50:43.588Z,18.55
2023-05-05T05:53:11.417Z,18.13
2023-05-05T05:55:39.277Z,17.85
2023-05-05T05:58:14.829Z,15.98
2023-05-05T06:00:42.636Z,17.08
2023-05-05T06:03:12.455Z,19.00
2023-05-05T06:05:41.874Z,18.10
2023-05-05T06:08:09.996Z,19.15
2023-05-05T06:10:42.888Z,18.98
2023-05-05T06:13:16.247Z,18.33
2023-05-05T06:15:47.307Z,19.58
2023-05-05T06:18:16.038Z,15.77
2023-05-05T06:20:45.292Z,14.70
2023-05-05T06:23:15.452Z,15.85
2023-05-05T06:25:48.222Z,15.25
2023-05-05T06:28:16.260Z,16.40
2023-05-05T06:30:44.066Z,12.90
2023-05-05T06:33:11.833Z,14.85
2023-05-05T06:35:39.576Z,15.10
2023-05-05T06:38:09.670Z,13.15
2023-05-05T06:40:37.427Z,13.15
2023-05-05T06:43:05.337Z,12.18
2023-05-05T06:45:37.856Z,11.30
2023-05-05T06:48:05.820Z,14.32
2023-05-05T06:50:33.863Z,16.70
2023-05-05T06:53:01.744Z,13.00
2023-05-05T06:55:30.868Z,13.60
2023-05-05T06:57:58.642Z,13.38
2023-05-05T07:00:26.653Z,16.67
2023-05-05T07:02:54.445Z,12.48
2023-05-05T07:05:22.303Z,12.80
2023-05-05T07:07:53.665Z,12.07
2023-05-05T07:10:22.434Z,10.93
2023-05-05T07:12:52.404Z,12.18
2023-05-05T07:15:28.829Z,13.32
2023-05-05T07:17:57.928Z,11.95
2023-05-05T07:20:26.781Z,10.50
2023-05-05T07:22:54.896Z,10.98
2023-05-05T07:25:22.862Z,10.18
2023-05-05T07:27:52.175Z,9.65
2023-05-05T07:30:20.176Z,10.52
2023-05-05T07:32:48.200Z,9.38
2023-05-05T07:35:16.258Z,9.85
2023-05-05T07:37:44.944Z,7.85
2023-05-05T07:40:13.404Z,8.65
2023-05-05T07:42:41.232Z,10.10
2023-05-05T07:45:11.050Z,8.40
2023-05-05T07:47:38.931Z,9.50
2023-05-05T07:50:08.463Z,11.23
2023-05-05T07:52:46.619Z,8.95
2023-05-05T07:55:17.654Z,9.95
2023-05-05T07:57:45.489Z,7.85
2023-05-05T08:00:15.848Z,7.75
2023-05-05T08:02:44.025Z,7.63
2023-05-05T08:05:12.713Z,7.60
2023-05-05T08:07:41.839Z,8.00
2023-05-05T08:10:11.318Z,7.63
2023-05-05T08:12:39.283Z,7.47
2023-05-05T08:15:08.163Z,7.85
2023-05-05T08:17:48.082Z,8.95
2023-05-05T08:20:16.198Z,6.63
2023-05-05T08:22:44.395Z,8.98
2023-05-05T08:25:12.990Z,7.55
2023-05-05T08:27:41.693Z,6.13
2023-05-05T08:30:10.399Z,7.13
2023-05-05T08:32:38.989Z,6.90
2023-05-05T08:35:09.113Z,9.30
2023-05-05T08:37:37.172Z,6.50
2023-05-05T08:40:05.705Z,7.20
2023-05-05T08:42:38.494Z,6.53
2023-05-05T08:45:09.036Z,6.53
2023-05-05T08:47:38.493Z,5.47
2023-05-05T08:50:10.990Z,5.82
2023-05-05T08:52:41.364Z,5.75
2023-05-05T08:55:15.249Z,5.20
2023-05-05T08:57:52.498Z,4.68
2023-05-05T09:00:21.206Z,6.20
2023-05-05T09:02:49.860Z,5.43
2023-05-05T09:05:19.319Z,8.15
2023-05-05T09:07:47.618Z,5.80
2023-05-05T09:10:15.929Z,5.50
2023-05-05T09:12:43.861Z,6.28
2023-05-05T09:15:14.066Z,7.90
2023-05-05T09:17:42.894Z,6.60
2023-05-05T09:20:13.446Z,6.43
2023-05-05T09:22:44.715Z,7.38
2023-05-05T09:25:13.870Z,8.00
2023-05-05T09:27:43.189Z,6.70
2023-05-05T09:30:13.160Z,6.05
2023-05-05T09:32:48.797Z,5.75
2023-05-05T09:35:17.370Z,6.28
2023-05-05T09:37:46.843Z,7.10
2023-05-05T09:40:16.406Z,6.82
2023-05-05T09:42:44.925Z,9.32
2023-05-05T09:45:27.270Z,9.82
2023-05-05T09:47:59.620Z,8.90
2023-05-05T09:50:30.725Z,8.25
2023-05-05T09:53:02.020Z,7.78
2023-05-05T09:55:30.903Z,7.75
2023-05-05T09:57:58.956Z,9.35
2023-05-05T10:00:39.679Z,10.15
2023-05-05T10:03:07.690Z,11.75
2023-05-05T10:05:48.288Z,9.25
2023-05-05T10:08:18.586Z,11.20
2023-05-05T10:10:53.615Z,9.57
2023-05-05T10:13:22.853Z,8.32
2023-05-05T10:15:52.110Z,7.43
2023-05-05T10:18:24.214Z,4.20
2023-05-05T10:20:59.129Z,7.38
2023-05-05T10:23:36.854Z,10.02
2023-05-05T10:26:08.019Z,11.82
2023-05-05T10:28:42.770Z,11.95
2023-05-05T10:31:25.991Z,6.15
2023-05-05T10:34:01.247Z,6.25
2023-05-05T10:36:31.617Z,4.75
2023-05-05T10:39:01.635Z,6.18
2023-05-05T10:41:30.930Z,6.55
2023-05-05T10:44:02.082Z,5.32
2023-05-05T10:46:31.969Z,7.30
2023-05-05T10:49:10.557Z,5.25
2023-05-05T10:51:48.057Z,5.40
2023-05-05T10:54:24.368Z,5.97
2023-05-05T10:56:52.873Z,5.85
2023-05-05T10:59:50.579Z,4.82
2023-05-05T11:02:23.504Z,6.68
2023-05-05T11:05:22.555Z,7.82
2023-05-05T11:07:52.068Z,7.97
2023-05-05T11:10:23.016Z,7.57
2023-05-05T11:15:41.533Z,7.82
2023-05-05T11:18:28.739Z,5.47
2023-05-05T11:21:15.561Z,5.28
2023-05-05T11:23:48.247Z,8.60
2023-05-05T11:26:19.513Z,6.05
2023-05-05T11:28:59.059Z,8.35
2023-05-05T11:31:27.002Z,7.43
2023-05-05T11:33:54.883Z,7.55
2023-05-05T11:36:40.597Z,8.77
2023-05-05T11:39:10.691Z,9.38
2023-05-05T11:41:58.261Z,7.95
2023-05-05T11:44:32.150Z,9.55
2023-05-05T11:47:29.219Z,9.35
2023-05-05T11:49:57.290Z,7.82
2023-05-05T11:52:29.533Z,9.45
2023-05-05T11:55:02.428Z,11.35
2023-05-05T11:57:31.928Z,8.60
2023-05-05T12:00:01.825Z,8.50
2023-05-05T12:02:32.805Z,8.77
2023-05-05T12:05:01.486Z,8.48
2023-05-05T12:07:31.350Z,9.85
2023-05-05T12:09:59.268Z,10.05
2023-05-05T12:12:39.371Z,8.93
2023-05-05T12:15:09.163Z,9.60
2023-05-05T12:17:42.625Z,7.50
2023-05-05T12:20:12.321Z,6.32
2023-05-05T12:22:40.670Z,7.03
2023-05-05T12:25:09.742Z,8.07
2023-05-05T12:27:39.174Z,10.38
2023-05-05T12:30:17.702Z,6.85
2023-05-05T12:32:46.562Z,9.25
2023-05-05T12:35:15.929Z,10.15
2023-05-05T12:37:44.253Z,9.20
2023-05-05T12:40:45.305Z,8.88
2023-05-05T12:43:27.066Z,7.88
2023-05-05T12:46:05.930Z,8.15
2023-05-05T12:48:34.514Z,8.23
2023-05-05T12:51:16.217Z,8.75
2023-05-05T12:53:44.446Z,8.90
2023-05-05T12:56:40.750Z,8.45
2023-05-05T12:59:11.825Z,8.77
2023-05-05T13:01:50.987Z,9.18
2023-05-05T13:04:19.605Z,9.02
2023-05-05T13:06:49.146Z,9.05
2023-05-05T13:09:27.130Z,9.45
2023-05-05T13:11:55.707Z,8.65
2023-05-05T13:14:24.901Z,9.20
2023-05-05T13:16:52.638Z,8.68
2023-05-05T13:19:20.675Z,9.63
2023-05-05T13:21:48.481Z,8.68
2023-05-05T13:24:23.618Z,10.00
2023-05-05T13:26:57.086Z,9.20
2023-05-05T13:29:30.397Z,8.55
2023-05-05T13:31:59.262Z,8.18
2023-05-05T13:34:27.138Z,9.65
2023-05-05T13:36:55.015Z,8.88
2023-05-05T13:39:22.883Z,11.02
2023-05-05T13:41:50.695Z,8.57
2023-05-05T13:44:18.708Z,10.57
2023-05-05T13:46:47.933Z,7.53
2023-05-05T13:49:15.702Z,7.60
2023-05-05T13:51:43.477Z,9.35
2023-05-05T13:54:11.275Z,9.10
2023-05-05T13:56:39.105Z,6.75
2023-05-05T13:59:06.977Z,7.43
2023-05-05T14:01:34.965Z,7.20
2023-05-05T14:04:05.620Z,7.40
2023-05-05T14:06:34.238Z,5.43
2023-05-05T14:09:05.532Z,5.95
2023-05-05T14:11:33.443Z,4.90
2023-05-05T14:14:01.656Z,4.80
2023-05-05T14:16:29.476Z,5.78
2023-05-05T14:18:57.282Z,6.03
2023-05-05T14:21:27.516Z,4.90
2023-05-05T14:23:55.606Z,4.22
2023-05-05T14:26:23.352Z,3.78
2023-05-05T14:28:51.156Z,6.07
2023-05-05T14:31:18.935Z,4.32
2023-05-05T14:33:46.894Z,5.45
2023-05-05T14:36:15.196Z,4.63
2023-05-05T14:38:44.376Z,5.00
2023-05-05T14:41:12.351Z,5.65
2023-05-05T14:43:40.085Z,5.22
2023-05-05T14:46:07.914Z,4.55
2023-05-05T14:48:35.959Z,5.68
2023-05-05T14:51:04.714Z,6.90
2023-05-05T14:53:32.537Z,5.25
2023-05-05T14:56:02.145Z,4.82
2023-05-05T14:58:31.053Z,4.85
2023-05-05T15:00:58.975Z,5.05
2023-05-05T15:03:27.069Z,6.13
2023-05-05T15:05:55.015Z,5.43
2023-05-05T15:08:22.802Z,5.68
2023-05-05T15:10:50.628Z,5.88
2023-05-05T15:13:19.893Z,5.90
2023-05-05T15:15:48.894Z,4.63
2023-05-05T15:18:16.730Z,5.75
2023-05-05T15:20:44.574Z,5.35
2023-05-05T15:23:12.343Z,5.60
2023-05-05T15:25:40.174Z,5.28
2023-05-05T15:28:07.958Z,5.10
2023-05-05T15:30:37.074Z,4.40
2023-05-05T15:33:04.944Z,7.30
2023-05-05T15:35:32.811Z,6.53
2023-05-05T15:38:00.589Z,5.28
2023-05-05T15:40:28.438Z,4.80
2023-05-05T15:42:56.321Z,3.45
2023-05-05T15:45:24.429Z,3.72
2023-05-05T15:47:53.871Z,4.55
2023-05-05T15:50:23.292Z,5.05
2023-05-05T15:52:51.083Z,4.10
2023-05-05T15:55:18.845Z,5.57
2023-05-05T15:57:46.611Z,5.65
2023-05-05T16:00:15.999Z,4.53
2023-05-05T16:02:43.803Z,3.78
2023-05-05T16:05:13.405Z,4.50
2023-05-05T16:07:41.275Z,4.45
2023-05-05T16:10:10.704Z,3.80
2023-05-05T16:12:38.527Z,3.67
2023-05-05T16:15:07.490Z,4.70
2023-05-05T16:17:35.609Z,4.85
2023-05-05T16:20:03.843Z,4.63
2023-05-05T16:22:33.064Z,4.85
2023-05-05T16:25:00.910Z,5.20
2023-05-05T16:27:28.677Z,4.53
2023-05-05T16:29:58.461Z,5.72
2023-05-05T16:34:55.042Z,6.40
2023-05-05T16:37:22.844Z,5.10
2023-05-05T16:39:51.999Z,5.45
2023-05-05T16:42:20.215Z,3.78
2023-05-05T16:44:48.000Z,4.43
2023-05-05T16:47:15.754Z,3.50
2023-05-05T16:49:43.582Z,3.75
2023-05-05T16:52:11.356Z,3.70
2023-05-05T16:54:39.088Z,3.78
2023-05-05T16:57:08.244Z,3.60
2023-05-05T16:59:35.998Z,4.82
2023-05-05T17:02:03.866Z,3.78
2023-05-05T17:04:31.795Z,3.58
2023-05-05T17:06:59.506Z,4.88
2023-05-05T17:09:27.464Z,3.10
2023-05-05T17:11:55.262Z,4.45
2023-05-05T17:14:25.304Z,7.13
2023-05-05T17:16:54.337Z,3.75
2023-05-05T17:19:22.139Z,2.85
2023-05-05T17:21:49.946Z,3.88
2023-05-05T17:24:17.708Z,3.15
2023-05-05T17:26:45.540Z,3.78
2023-05-05T17:29:14.203Z,3.80
2023-05-05T17:31:43.416Z,3.40
2023-05-05T17:34:11.259Z,4.20
2023-05-05T17:36:39.055Z,3.58
2023-05-05T17:39:06.864Z,3.47
2023-05-05T17:41:34.861Z,4.63
2023-05-05T17:44:02.712Z,3.92
2023-05-05T17:46:30.555Z,3.55
2023-05-05T17:49:00.360Z,3.90
2023-05-05T17:51:28.553Z,3.72
2023-05-05T17:53:56.371Z,4.45
2023-05-05T17:56:24.290Z,4.38
2023-05-05T17:58:52.508Z,4.15
2023-05-05T18:01:23.212Z,4.07
2023-05-05T18:03:51.224Z,4.03
2023-05-05T18:06:20.374Z,3.80
2023-05-05T18:08:48.178Z,4.72
2023-05-05T18:11:16.265Z,4.03
2023-05-05T18:13:44.208Z,4.35
2023-05-05T18:16:12.019Z,5.35
2023-05-05T18:18:41.116Z,4.28
2023-05-05T18:21:12.184Z,5.15
2023-05-05T18:23:41.645Z,4.03
2023-05-05T18:26:09.786Z,3.97
2023-05-05T18:28:37.888Z,3.90
2023-05-05T18:31:06.189Z,4.55
2023-05-05T18:33:34.117Z,3.85
2023-05-05T18:36:03.211Z,4.57
2023-05-05T18:38:32.520Z,4.70
2023-05-05T18:41:01.692Z,4.78
2023-05-05T18:43:29.479Z,4.43
2023-05-05T18:45:57.330Z,4.30
2023-05-05T18:48:26.187Z,4.85
2023-05-05T18:50:54.041Z,4.32
2023-05-05T18:53:21.814Z,7.32
2023-05-05T18:55:49.620Z,4.20
2023-05-05T18:58:18.874Z,5.10
2023-05-05T19:00:46.688Z,4.38
2023-05-05T19:03:14.459Z,4.05
2023-05-05T19:05:42.444Z,4.45
2023-05-05T19:08:10.349Z,4.50
2023-05-05T19:10:38.196Z,5.85
2023-05-05T19:13:06.111Z,6.10
2023-05-05T19:15:35.317Z,4.50
2023-05-05T19:18:03.386Z,6.80
2023-05-05T19:20:31.759Z,5.22
2023-05-05T19:23:03.641Z,6.68
2023-05-05T19:25:31.686Z,4.57
2023-05-05T19:27:59.562Z,4.70
2023-05-05T19:30:27.445Z,6.18
2023-05-05T19:32:56.773Z,9.57
2023-05-05T19:35:24.623Z,4.40
2023-05-05T19:37:52.460Z,8.82
2023-05-05T19:40:20.668Z,7.18
2023-05-05T19:42:48.469Z,5.93
2023-05-05T19:45:16.453Z,5.22
2023-05-05T19:47:46.095Z,5.95
2023-05-05T19:50:16.248Z,5.85
2023-05-05T19:52:44.047Z,5.85
2023-05-05T19:55:12.967Z,6.30
2023-05-05T19:57:41.066Z,7.35
2023-05-05T20:00:10.957Z,5.88
2023-05-05T20:02:39.075Z,7.55
2023-05-05T20:05:07.795Z,7.80
2023-05-05T20:07:36.956Z,8.23
2023-05-05T20:10:05.329Z,5.38
2023-05-05T20:12:33.179Z,6.35
2023-05-05T20:15:01.283Z,6.85
2023-05-05T20:17:29.067Z,5.57
2023-05-05T20:19:57.671Z,6.63
2023-05-05T20:22:26.529Z,5.80
2023-05-05T20:24:55.814Z,6.05
2023-05-05T20:27:24.849Z,7.22
2023-05-05T20:29:53.777Z,6.38
2023-05-05T20:32:21.577Z,6.90
2023-05-05T20:34:49.407Z,6.95
2023-05-05T20:37:17.288Z,7.18
2023-05-05T20:39:45.117Z,7.65
2023-05-05T20:42:14.284Z,7.50
2023-05-05T20:44:42.159Z,6.38
2023-05-05T20:47:10.033Z,7.85
2023-05-05T20:49:37.976Z,6.82
2023-05-05T20:52:06.244Z,6.88
2023-05-05T20:54:34.582Z,7.82
2023-05-05T20:57:03.069Z,7.05
2023-05-05T20:59:32.254Z,6.43
2023-05-05T21:02:00.127Z,7.47
2023-05-05T21:04:28.032Z,8.07
2023-05-05T21:06:55.932Z,6.72
2023-05-05T21:09:24.674Z,6.97
2023-05-05T21:11:52.503Z,7.38
2023-05-05T21:14:20.308Z,7.40
2023-05-05T21:16:49.462Z,7.00
2023-05-05T21:19:17.414Z,7.35
2023-05-05T21:21:45.296Z,7.95
2023-05-05T21:24:13.823Z,7.20
2023-05-05T21:26:43.940Z,8.52
2023-05-05T21:29:12.200Z,7.78
2023-05-05T21:31:40.071Z,7.95
2023-05-05T21:34:09.313Z,7.43
2023-05-05T21:36:38.652Z,9.05
2023-05-05T21:39:06.683Z,6.10
2023-05-05T21:41:34.519Z,6.78
2023-05-05T21:44:02.380Z,8.57
2023-05-05T21:46:30.274Z,8.45
2023-05-05T21:48:58.243Z,8.55
2023-05-05T21:51:27.387Z,9.93
2023-05-05T21:53:55.139Z,7.63
2023-05-05T21:56:22.895Z,8.43
2023-05-05T21:58:50.632Z,8.52
2023-05-05T22:01:18.439Z,8.68
2023-05-05T22:03:47.550Z,9.27
2023-05-05T22:06:17.340Z,8.93
2023-05-05T22:08:46.451Z,10.30
2023-05-05T22:11:14.449Z,8.90
2023-05-05T22:13:42.263Z,9.65
2023-05-05T22:16:10.967Z,8.18
2023-05-05T22:18:38.848Z,9.25
2023-05-05T22:21:07.121Z,9.25
2023-05-05T22:23:34.977Z,8.73
2023-05-05T22:26:04.796Z,9.82
2023-05-05T22:28:32.579Z,11.88
2023-05-05T22:31:00.379Z,13.30
2023-05-05T22:33:28.426Z,9.70
2023-05-05T22:35:56.221Z,10.35
2023-05-05T22:38:24.161Z,10.15
2023-05-05T22:40:52.001Z,9.82
2023-05-05T22:43:21.217Z,9.55
2023-05-05T22:45:49.092Z,10.20
2023-05-05T22:48:16.858Z,9.82
2023-05-05T22:50:45.621Z,10.45
2023-05-05T22:53:13.502Z,11.98
2023-05-05T22:55:41.382Z,10.88
2023-05-05T22:58:09.202Z,8.48
2023-05-05T23:00:38.339Z,7.38
2023-05-05T23:03:06.123Z,9.57
2023-05-05T23:05:34.463Z,11.07
2023-05-05T23:08:02.301Z,12.88
2023-05-05T23:10:30.324Z,14.48
2023-05-05T23:12:58.139Z,12.18
2023-05-05T23:15:26.034Z,8.93
2023-05-05T23:17:55.167Z,9.90
2023-05-05T23:20:23.242Z,11.07
2023-05-05T23:22:51.005Z,8.63
2023-05-05T23:25:18.803Z,9.05
2023-05-05T23:27:46.573Z,10.48
2023-05-05T23:30:15.174Z,9.50
2023-05-05T23:32:44.776Z,8.15
2023-05-05T23:35:13.981Z,8.13
2023-05-05T23:37:41.727Z,8.23
2023-05-05T23:40:10.318Z,9.50
2023-05-05T23:42:38.164Z,10.45
2023-05-05T23:45:06.565Z,13.02
2023-05-05T23:47:34.416Z,12.52
2023-05-05T23:50:02.344Z,15.52
2023-05-05T23:52:31.531Z,13.45
2023-05-05T23:54:59.299Z,13.55
2023-05-05T23:57:27.234Z,15.93
2023-05-05T23:59:54.997Z,14.63
